sensor_id;sensor_type;location;lat;lon;timestamp;pressure;altitude;pressure_sealevel;temperature;humidity
65832;BME280;52593;42.648;23.332;2023-08-21T00:00:55;94894.94;;;20.71;65.98
65832;BME280;52593;42.648;23.332;2023-08-21T00:03:21;94896.56;;;20.60;66.25
65832;BME280;52593;42.648;23.332;2023-08-21T00:05:47;94893.03;;;20.47;67.12
65832;BME280;52593;42.648;23.332;2023-08-21T00:08:12;94900.22;;;20.42;67.24
65832;BME280;52593;42.648;23.332;2023-08-21T00:10:38;94898.81;;;20.51;66.92
65832;BME280;52593;42.648;23.332;2023-08-21T00:15:47;94892.78;;;20.37;66.43
65832;BME280;52593;42.648;23.332;2023-08-21T00:18:13;94882.59;;;20.56;66.31
65832;BME280;52593;42.648;23.332;2023-08-21T00:20:38;94891.59;;;20.80;65.87
65832;BME280;52593;42.648;23.332;2023-08-21T00:23:04;94883.09;;;20.65;66.44
65832;BME280;52593;42.648;23.332;2023-08-21T00:25:29;94881.53;;;20.45;67.22
65832;BME280;52593;42.648;23.332;2023-08-21T00:27:55;94880.72;;;20.33;67.32
65832;BME280;52593;42.648;23.332;2023-08-21T00:30:20;94888.66;;;20.46;67.53
65832;BME280;52593;42.648;23.332;2023-08-21T00:32:46;94887.47;;;20.54;66.77
65832;BME280;52593;42.648;23.332;2023-08-21T00:35:11;94891.00;;;20.31;68.04
65832;BME280;52593;42.648;23.332;2023-08-21T00:37:37;94893.50;;;20.44;67.63
65832;BME280;52593;42.648;23.332;2023-08-21T00:40:02;94891.94;;;20.37;67.81
65832;BME280;52593;42.648;23.332;2023-08-21T00:42:28;94897.88;;;20.22;68.06
65832;BME280;52593;42.648;23.332;2023-08-21T00:44:53;94901.91;;;20.43;67.35
65832;BME280;52593;42.648;23.332;2023-08-21T00:47:19;94892.53;;;20.15;68.73
65832;BME280;52593;42.648;23.332;2023-08-21T00:49:45;94896.66;;;20.06;68.59
65832;BME280;52593;42.648;23.332;2023-08-21T00:52:12;94901.84;;;20.07;68.71
65832;BME280;52593;42.648;23.332;2023-08-21T00:54:39;94890.28;;;20.00;68.76
65832;BME280;52593;42.648;23.332;2023-08-21T00:57:05;94904.72;;;20.12;69.48
65832;BME280;52593;42.648;23.332;2023-08-21T00:59:30;94893.69;;;20.07;69.20
65832;BME280;52593;42.648;23.332;2023-08-21T01:01:56;94899.59;;;20.04;69.52
65832;BME280;52593;42.648;23.332;2023-08-21T01:04:21;94903.28;;;20.10;68.89
65832;BME280;52593;42.648;23.332;2023-08-21T01:06:48;94900.53;;;19.98;69.74
65832;BME280;52593;42.648;23.332;2023-08-21T01:09:25;94905.72;;;20.00;69.87
65832;BME280;52593;42.648;23.332;2023-08-21T01:12:03;94905.63;;;19.94;69.81
65832;BME280;52593;42.648;23.332;2023-08-21T01:17:19;94902.78;;;20.01;69.32
65832;BME280;52593;42.648;23.332;2023-08-21T01:19:49;94904.88;;;19.87;69.41
65832;BME280;52593;42.648;23.332;2023-08-21T01:22:15;94908.81;;;19.91;70.09
65832;BME280;52593;42.648;23.332;2023-08-21T01:24:40;94896.03;;;19.92;69.96
65832;BME280;52593;42.648;23.332;2023-08-21T01:27:05;94900.78;;;19.85;69.92
65832;BME280;52593;42.648;23.332;2023-08-21T01:29:31;94894.88;;;19.69;70.25
65832;BME280;52593;42.648;23.332;2023-08-21T01:34:41;94898.56;;;19.75;69.99
65832;BME280;52593;42.648;23.332;2023-08-21T01:37:08;94903.56;;;19.78;70.39
65832;BME280;52593;42.648;23.332;2023-08-21T01:39:33;94905.63;;;19.64;70.85
65832;BME280;52593;42.648;23.332;2023-08-21T01:41:59;94903.34;;;19.80;70.57
65832;BME280;52593;42.648;23.332;2023-08-21T01:44:24;94904.84;;;19.75;70.30
65832;BME280;52593;42.648;23.332;2023-08-21T01:46:51;94911.50;;;19.61;70.15
65832;BME280;52593;42.648;23.332;2023-08-21T01:49:17;94905.03;;;19.62;70.22
65832;BME280;52593;42.648;23.332;2023-08-21T01:51:44;94917.19;;;19.59;70.54
65832;BME280;52593;42.648;23.332;2023-08-21T01:54:09;94903.16;;;19.63;70.85
65832;BME280;52593;42.648;23.332;2023-08-21T01:56:35;94899.16;;;19.65;70.49
65832;BME280;52593;42.648;23.332;2023-08-21T01:59:01;94894.53;;;19.66;70.42
65832;BME280;52593;42.648;23.332;2023-08-21T02:01:27;94898.56;;;19.75;70.29
65832;BME280;52593;42.648;23.332;2023-08-21T02:03:52;94892.63;;;19.54;71.26
65832;BME280;52593;42.648;23.332;2023-08-21T02:06:18;94893.09;;;19.51;71.66
65832;BME280;52593;42.648;23.332;2023-08-21T02:08:43;94898.63;;;19.56;71.54
65832;BME280;52593;42.648;23.332;2023-08-21T02:11:08;94892.94;;;19.46;71.59
65832;BME280;52593;42.648;23.332;2023-08-21T02:13:34;94902.84;;;19.40;71.86
65832;BME280;52593;42.648;23.332;2023-08-21T02:15:59;94896.03;;;19.50;72.36
65832;BME280;52593;42.648;23.332;2023-08-21T02:18:25;94900.44;;;19.63;70.54
65832;BME280;52593;42.648;23.332;2023-08-21T02:20:50;94895.53;;;19.41;71.85
65832;BME280;52593;42.648;23.332;2023-08-21T02:23:15;94893.72;;;19.65;71.32
65832;BME280;52593;42.648;23.332;2023-08-21T02:25:41;94888.25;;;19.53;72.08
65832;BME280;52593;42.648;23.332;2023-08-21T02:28:07;94888.97;;;19.60;72.00
65832;BME280;52593;42.648;23.332;2023-08-21T02:30:32;94895.19;;;19.49;72.93
65832;BME280;52593;42.648;23.332;2023-08-21T02:32:58;94896.16;;;19.24;73.78
65832;BME280;52593;42.648;23.332;2023-08-21T02:35:23;94895.41;;;19.36;73.87
65832;BME280;52593;42.648;23.332;2023-08-21T02:37:49;94894.53;;;19.23;74.13
65832;BME280;52593;42.648;23.332;2023-08-21T02:40:14;94897.75;;;19.14;75.23
65832;BME280;52593;42.648;23.332;2023-08-21T02:42:39;94892.44;;;19.07;74.94
65832;BME280;52593;42.648;23.332;2023-08-21T02:45:05;94888.16;;;18.99;75.51
65832;BME280;52593;42.648;23.332;2023-08-21T02:47:38;94893.94;;;19.03;75.59
65832;BME280;52593;42.648;23.332;2023-08-21T02:50:05;94895.66;;;18.97;75.72
65832;BME280;52593;42.648;23.332;2023-08-21T02:52:31;94897.31;;;18.98;76.16
65832;BME280;52593;42.648;23.332;2023-08-21T02:54:57;94900.94;;;18.92;76.61
65832;BME280;52593;42.648;23.332;2023-08-21T02:57:24;94901.63;;;18.87;76.76
65832;BME280;52593;42.648;23.332;2023-08-21T02:59:50;94898.56;;;18.77;76.81
65832;BME280;52593;42.648;23.332;2023-08-21T03:02:15;94905.66;;;18.78;77.31
65832;BME280;52593;42.648;23.332;2023-08-21T03:04:41;94898.91;;;18.87;76.94
65832;BME280;52593;42.648;23.332;2023-08-21T03:07:06;94895.88;;;18.77;77.54
65832;BME280;52593;42.648;23.332;2023-08-21T03:09:31;94897.63;;;18.71;78.00
65832;BME280;52593;42.648;23.332;2023-08-21T03:11:57;94903.31;;;18.63;78.23
65832;BME280;52593;42.648;23.332;2023-08-21T03:14:24;94911.22;;;18.65;77.90
65832;BME280;52593;42.648;23.332;2023-08-21T03:16:50;94912.88;;;18.66;77.95
65832;BME280;52593;42.648;23.332;2023-08-21T03:19:15;94909.13;;;18.67;78.48
65832;BME280;52593;42.648;23.332;2023-08-21T03:21:40;94915.19;;;18.87;78.43
65832;BME280;52593;42.648;23.332;2023-08-21T03:24:06;94910.06;;;18.98;77.96
65832;BME280;52593;42.648;23.332;2023-08-21T03:26:32;94911.88;;;18.85;77.91
65832;BME280;52593;42.648;23.332;2023-08-21T03:28:57;94923.59;;;18.61;79.38
65832;BME280;52593;42.648;23.332;2023-08-21T03:31:23;94920.50;;;18.76;79.02
65832;BME280;52593;42.648;23.332;2023-08-21T03:33:48;94917.69;;;18.45;79.98
65832;BME280;52593;42.648;23.332;2023-08-21T03:36:13;94909.97;;;18.67;79.30
65832;BME280;52593;42.648;23.332;2023-08-21T03:38:39;94926.69;;;18.39;80.35
65832;BME280;52593;42.648;23.332;2023-08-21T03:41:04;94919.81;;;18.18;80.97
65832;BME280;52593;42.648;23.332;2023-08-21T03:43:31;94920.56;;;18.25;80.75
65832;BME280;52593;42.648;23.332;2023-08-21T03:45:56;94919.50;;;18.51;79.86
65832;BME280;52593;42.648;23.332;2023-08-21T03:48:21;94923.13;;;18.45;80.16
65832;BME280;52593;42.648;23.332;2023-08-21T03:50:49;94919.00;;;18.36;80.27
65832;BME280;52593;42.648;23.332;2023-08-21T03:53:14;94915.72;;;18.34;80.14
65832;BME280;52593;42.648;23.332;2023-08-21T03:55:40;94916.72;;;18.40;80.29
65832;BME280;52593;42.648;23.332;2023-08-21T03:58:05;94921.22;;;18.46;79.86
65832;BME280;52593;42.648;23.332;2023-08-21T04:00:30;94921.44;;;18.44;79.60
65832;BME280;52593;42.648;23.332;2023-08-21T04:02:57;94919.56;;;18.45;79.86
65832;BME280;52593;42.648;23.332;2023-08-21T04:05:22;94915.22;;;18.62;79.56
65832;BME280;52593;42.648;23.332;2023-08-21T04:07:47;94914.59;;;18.42;80.33
65832;BME280;52593;42.648;23.332;2023-08-21T04:10:13;94918.72;;;18.26;80.96
65832;BME280;52593;42.648;23.332;2023-08-21T04:12:38;94922.91;;;18.47;80.14
65832;BME280;52593;42.648;23.332;2023-08-21T04:15:04;94921.56;;;18.56;79.93
65832;BME280;52593;42.648;23.332;2023-08-21T04:17:31;94928.84;;;18.56;80.03
65832;BME280;52593;42.648;23.332;2023-08-21T04:19:56;94935.63;;;18.83;79.61
65832;BME280;52593;42.648;23.332;2023-08-21T04:22:22;94928.25;;;18.72;80.09
65832;BME280;52593;42.648;23.332;2023-08-21T04:24:47;94930.81;;;18.67;80.28
65832;BME280;52593;42.648;23.332;2023-08-21T04:27:13;94925.69;;;18.77;80.14
65832;BME280;52593;42.648;23.332;2023-08-21T04:29:39;94929.88;;;18.98;79.02
65832;BME280;52593;42.648;23.332;2023-08-21T04:32:05;94939.28;;;18.96;79.54
65832;BME280;52593;42.648;23.332;2023-08-21T04:34:34;94934.06;;;18.94;79.43
65832;BME280;52593;42.648;23.332;2023-08-21T04:37:00;94936.88;;;19.06;77.82
65832;BME280;52593;42.648;23.332;2023-08-21T04:39:25;94944.25;;;18.99;77.70
65832;BME280;52593;42.648;23.332;2023-08-21T04:41:51;94934.25;;;18.99;76.66
65832;BME280;52593;42.648;23.332;2023-08-21T04:44:16;94938.97;;;19.04;75.39
65832;BME280;52593;42.648;23.332;2023-08-21T04:46:42;94942.88;;;19.08;75.48
65832;BME280;52593;42.648;23.332;2023-08-21T04:49:07;94932.66;;;19.10;75.41
65832;BME280;52593;42.648;23.332;2023-08-21T04:51:34;94932.53;;;19.35;73.35
65832;BME280;52593;42.648;23.332;2023-08-21T04:53:59;94944.38;;;19.41;73.54
65832;BME280;52593;42.648;23.332;2023-08-21T04:56:25;94949.69;;;19.48;73.28
65832;BME280;52593;42.648;23.332;2023-08-21T04:58:51;94941.66;;;19.71;72.48
65832;BME280;52593;42.648;23.332;2023-08-21T05:01:16;94942.81;;;19.94;70.29
65832;BME280;52593;42.648;23.332;2023-08-21T05:03:42;94950.97;;;19.94;69.64
65832;BME280;52593;42.648;23.332;2023-08-21T05:06:07;94955.94;;;19.97;69.41
65832;BME280;52593;42.648;23.332;2023-08-21T05:08:33;94948.63;;;20.09;69.63
65832;BME280;52593;42.648;23.332;2023-08-21T05:10:59;94956.75;;;19.98;71.02
65832;BME280;52593;42.648;23.332;2023-08-21T05:13:25;94953.09;;;20.04;70.17
65832;BME280;52593;42.648;23.332;2023-08-21T05:15:57;94960.09;;;20.11;70.21
65832;BME280;52593;42.648;23.332;2023-08-21T05:18:23;94957.88;;;20.20;69.24
65832;BME280;52593;42.648;23.332;2023-08-21T05:20:50;94962.69;;;20.18;68.89
65832;BME280;52593;42.648;23.332;2023-08-21T05:23:16;94972.75;;;20.18;69.24
65832;BME280;52593;42.648;23.332;2023-08-21T05:25:42;94969.06;;;20.12;70.00
65832;BME280;52593;42.648;23.332;2023-08-21T05:28:08;94974.06;;;20.27;69.21
65832;BME280;52593;42.648;23.332;2023-08-21T05:30:35;94956.94;;;20.38;68.64
65832;BME280;52593;42.648;23.332;2023-08-21T05:33:02;94960.38;;;20.45;68.38
65832;BME280;52593;42.648;23.332;2023-08-21T05:35:27;94958.09;;;20.30;69.71
65832;BME280;52593;42.648;23.332;2023-08-21T05:37:52;94969.34;;;20.58;68.29
65832;BME280;52593;42.648;23.332;2023-08-21T05:40:18;94960.38;;;20.57;68.45
65832;BME280;52593;42.648;23.332;2023-08-21T05:42:43;94953.56;;;20.66;68.72
65832;BME280;52593;42.648;23.332;2023-08-21T05:45:09;94962.66;;;20.72;68.58
65832;BME280;52593;42.648;23.332;2023-08-21T05:47:34;94957.81;;;20.74;68.69
65832;BME280;52593;42.648;23.332;2023-08-21T05:50:00;94952.69;;;20.54;69.14
65832;BME280;52593;42.648;23.332;2023-08-21T05:52:25;94957.09;;;20.79;69.01
65832;BME280;52593;42.648;23.332;2023-08-21T05:54:51;94953.91;;;20.94;67.98
65832;BME280;52593;42.648;23.332;2023-08-21T05:57:16;94953.81;;;20.77;68.65
65832;BME280;52593;42.648;23.332;2023-08-21T05:59:46;94951.13;;;21.06;68.36
65832;BME280;52593;42.648;23.332;2023-08-21T06:02:12;94952.47;;;20.91;68.30
65832;BME280;52593;42.648;23.332;2023-08-21T06:04:40;94949.50;;;21.05;68.06
65832;BME280;52593;42.648;23.332;2023-08-21T06:07:06;94954.16;;;21.33;66.92
65832;BME280;52593;42.648;23.332;2023-08-21T06:09:31;94955.78;;;21.46;65.48
65832;BME280;52593;42.648;23.332;2023-08-21T06:11:59;94953.03;;;21.58;65.61
65832;BME280;52593;42.648;23.332;2023-08-21T06:14:26;94949.41;;;21.81;64.31
65832;BME280;52593;42.648;23.332;2023-08-21T06:17:01;94956.69;;;21.92;63.36
65832;BME280;52593;42.648;23.332;2023-08-21T06:19:27;94957.69;;;21.86;63.83
65832;BME280;52593;42.648;23.332;2023-08-21T06:21:54;94952.97;;;21.81;64.63
65832;BME280;52593;42.648;23.332;2023-08-21T06:24:19;94962.09;;;21.75;65.68
65832;BME280;52593;42.648;23.332;2023-08-21T06:26:45;94959.41;;;21.92;64.44
65832;BME280;52593;42.648;23.332;2023-08-21T06:29:10;94958.44;;;21.98;63.53
65832;BME280;52593;42.648;23.332;2023-08-21T06:31:35;94963.47;;;22.35;61.98
65832;BME280;52593;42.648;23.332;2023-08-21T06:34:01;94955.75;;;22.15;62.76
65832;BME280;52593;42.648;23.332;2023-08-21T06:36:26;94957.94;;;22.47;60.12
65832;BME280;52593;42.648;23.332;2023-08-21T06:38:51;94959.66;;;22.70;59.48
65832;BME280;52593;42.648;23.332;2023-08-21T06:41:17;94956.44;;;22.73;59.85
65832;BME280;52593;42.648;23.332;2023-08-21T06:43:42;94961.72;;;22.63;60.70
65832;BME280;52593;42.648;23.332;2023-08-21T06:46:08;94960.81;;;22.74;57.48
65832;BME280;52593;42.648;23.332;2023-08-21T06:48:34;94963.47;;;23.25;55.99
65832;BME280;52593;42.648;23.332;2023-08-21T06:51:00;94968.31;;;23.40;56.62
65832;BME280;52593;42.648;23.332;2023-08-21T06:53:27;94964.97;;;23.16;56.99
65832;BME280;52593;42.648;23.332;2023-08-21T06:55:53;94963.78;;;23.51;56.48
65832;BME280;52593;42.648;23.332;2023-08-21T06:58:19;94962.00;;;23.62;55.40
65832;BME280;52593;42.648;23.332;2023-08-21T07:00:44;94967.44;;;23.40;55.60
65832;BME280;52593;42.648;23.332;2023-08-21T07:03:10;94965.84;;;23.66;54.92
65832;BME280;52593;42.648;23.332;2023-08-21T07:05:35;94964.47;;;23.85;53.94
65832;BME280;52593;42.648;23.332;2023-08-21T07:08:00;94968.38;;;23.95;52.48
65832;BME280;52593;42.648;23.332;2023-08-21T07:10:26;94960.25;;;24.00;52.91
65832;BME280;52593;42.648;23.332;2023-08-21T07:12:53;94958.19;;;24.12;52.17
65832;BME280;52593;42.648;23.332;2023-08-21T07:15:18;94961.78;;;24.18;52.06
65832;BME280;52593;42.648;23.332;2023-08-21T07:17:44;94961.63;;;24.30;51.90
65832;BME280;52593;42.648;23.332;2023-08-21T07:20:09;94966.41;;;24.45;51.59
65832;BME280;52593;42.648;23.332;2023-08-21T07:22:35;94960.66;;;24.46;50.70
65832;BME280;52593;42.648;23.332;2023-08-21T07:25:01;94967.34;;;24.28;51.85
65832;BME280;52593;42.648;23.332;2023-08-21T07:27:29;94957.44;;;24.54;50.61
65832;BME280;52593;42.648;23.332;2023-08-21T07:29:55;94956.50;;;24.38;50.76
65832;BME280;52593;42.648;23.332;2023-08-21T07:32:20;94956.44;;;24.61;50.74
65832;BME280;52593;42.648;23.332;2023-08-21T07:34:45;94955.50;;;24.82;50.01
65832;BME280;52593;42.648;23.332;2023-08-21T07:37:11;94954.22;;;24.95;49.81
65832;BME280;52593;42.648;23.332;2023-08-21T07:39:36;94956.25;;;25.20;47.95
65832;BME280;52593;42.648;23.332;2023-08-21T07:42:02;94962.84;;;25.19;48.78
65832;BME280;52593;42.648;23.332;2023-08-21T07:44:27;94960.94;;;25.20;49.72
65832;BME280;52593;42.648;23.332;2023-08-21T07:46:52;94950.34;;;25.39;47.92
65832;BME280;52593;42.648;23.332;2023-08-21T07:49:18;94956.16;;;25.48;48.02
65832;BME280;52593;42.648;23.332;2023-08-21T07:51:43;94953.16;;;25.49;49.12
65832;BME280;52593;42.648;23.332;2023-08-21T07:54:08;94952.03;;;25.45;47.94
65832;BME280;52593;42.648;23.332;2023-08-21T07:56:34;94949.38;;;25.71;46.60
65832;BME280;52593;42.648;23.332;2023-08-21T07:59:02;94947.78;;;25.75;47.11
65832;BME280;52593;42.648;23.332;2023-08-21T08:01:27;94954.91;;;25.76;46.82
65832;BME280;52593;42.648;23.332;2023-08-21T08:03:52;94947.00;;;25.90;46.13
65832;BME280;52593;42.648;23.332;2023-08-21T08:06:18;94947.59;;;26.02;46.29
65832;BME280;52593;42.648;23.332;2023-08-21T08:08:44;94947.78;;;25.80;46.69
65832;BME280;52593;42.648;23.332;2023-08-21T08:11:09;94942.72;;;26.40;45.87
65832;BME280;52593;42.648;23.332;2023-08-21T08:13:34;94940.50;;;26.32;44.60
65832;BME280;52593;42.648;23.332;2023-08-21T08:16:00;94937.22;;;26.30;45.46
65832;BME280;52593;42.648;23.332;2023-08-21T08:18:26;94935.84;;;26.38;44.97
65832;BME280;52593;42.648;23.332;2023-08-21T08:20:51;94941.31;;;26.22;46.83
65832;BME280;52593;42.648;23.332;2023-08-21T08:23:18;94928.69;;;26.26;46.53
65832;BME280;52593;42.648;23.332;2023-08-21T08:25:44;94932.25;;;26.32;46.83
65832;BME280;52593;42.648;23.332;2023-08-21T08:28:09;94930.91;;;26.91;43.28
65832;BME280;52593;42.648;23.332;2023-08-21T08:30:34;94933.03;;;27.15;43.39
65832;BME280;52593;42.648;23.332;2023-08-21T08:33:00;94927.53;;;27.15;42.27
65832;BME280;52593;42.648;23.332;2023-08-21T08:35:25;94929.47;;;27.14;42.67
65832;BME280;52593;42.648;23.332;2023-08-21T08:37:51;94931.34;;;27.34;42.27
65832;BME280;52593;42.648;23.332;2023-08-21T08:40:16;94920.63;;;27.38;42.47
65832;BME280;52593;42.648;23.332;2023-08-21T08:42:41;94920.38;;;27.34;41.84
65832;BME280;52593;42.648;23.332;2023-08-21T08:45:07;94921.75;;;27.32;42.95
65832;BME280;52593;42.648;23.332;2023-08-21T08:47:33;94928.31;;;27.31;43.62
65832;BME280;52593;42.648;23.332;2023-08-21T08:50:04;94920.88;;;27.47;43.36
65832;BME280;52593;42.648;23.332;2023-08-21T08:52:39;94914.00;;;27.44;43.88
65832;BME280;52593;42.648;23.332;2023-08-21T08:55:06;94917.00;;;27.53;41.30
65832;BME280;52593;42.648;23.332;2023-08-21T08:57:32;94910.28;;;27.80;40.43
65832;BME280;52593;42.648;23.332;2023-08-21T08:59:59;94909.59;;;28.03;41.01
65832;BME280;52593;42.648;23.332;2023-08-21T09:02:25;94905.75;;;28.04;42.71
65832;BME280;52593;42.648;23.332;2023-08-21T09:04:51;94904.78;;;28.24;43.00
65832;BME280;52593;42.648;23.332;2023-08-21T09:07:17;94910.84;;;28.61;40.27
65832;BME280;52593;42.648;23.332;2023-08-21T09:09:46;94907.25;;;28.90;38.21
65832;BME280;52593;42.648;23.332;2023-08-21T09:12:13;94905.28;;;28.95;38.61
65832;BME280;52593;42.648;23.332;2023-08-21T09:14:40;94909.13;;;28.94;36.59
65832;BME280;52593;42.648;23.332;2023-08-21T09:17:06;94904.84;;;28.83;37.15
65832;BME280;52593;42.648;23.332;2023-08-21T09:19:32;94908.38;;;28.89;36.45
65832;BME280;52593;42.648;23.332;2023-08-21T09:21:57;94907.53;;;28.88;36.57
65832;BME280;52593;42.648;23.332;2023-08-21T09:24:23;94905.06;;;28.87;36.79
65832;BME280;52593;42.648;23.332;2023-08-21T09:26:49;94904.97;;;28.97;36.30
65832;BME280;52593;42.648;23.332;2023-08-21T09:29:14;94907.34;;;29.09;36.67
65832;BME280;52593;42.648;23.332;2023-08-21T09:31:40;94899.75;;;29.25;35.97
65832;BME280;52593;42.648;23.332;2023-08-21T09:34:05;94893.00;;;29.36;35.95
65832;BME280;52593;42.648;23.332;2023-08-21T09:36:31;94897.41;;;29.37;35.94
65832;BME280;52593;42.648;23.332;2023-08-21T09:38:57;94886.16;;;29.33;37.46
65832;BME280;52593;42.648;23.332;2023-08-21T09:41:23;94899.97;;;29.52;36.12
65832;BME280;52593;42.648;23.332;2023-08-21T09:43:49;94881.63;;;29.86;34.10
65832;BME280;52593;42.648;23.332;2023-08-21T09:46:16;94886.13;;;29.82;36.09
65832;BME280;52593;42.648;23.332;2023-08-21T09:48:43;94884.25;;;29.72;35.30
65832;BME280;52593;42.648;23.332;2023-08-21T09:51:09;94885.50;;;29.85;36.32
65832;BME280;52593;42.648;23.332;2023-08-21T09:53:35;94881.41;;;30.20;34.90
65832;BME280;52593;42.648;23.332;2023-08-21T09:56:01;94873.06;;;30.06;34.82
65832;BME280;52593;42.648;23.332;2023-08-21T09:58:29;94878.56;;;30.06;35.16
65832;BME280;52593;42.648;23.332;2023-08-21T10:00:57;94877.13;;;30.28;35.33
65832;BME280;52593;42.648;23.332;2023-08-21T10:03:24;94871.31;;;30.30;33.59
65832;BME280;52593;42.648;23.332;2023-08-21T10:05:51;94865.50;;;30.64;33.22
65832;BME280;52593;42.648;23.332;2023-08-21T10:08:23;94873.19;;;30.67;34.71
65832;BME280;52593;42.648;23.332;2023-08-21T10:10:49;94869.31;;;30.68;32.66
65832;BME280;52593;42.648;23.332;2023-08-21T10:13:14;94871.00;;;30.50;32.15
65832;BME280;52593;42.648;23.332;2023-08-21T10:15:41;94861.09;;;30.49;33.93
65832;BME280;52593;42.648;23.332;2023-08-21T10:18:30;94863.97;;;31.05;32.40
65832;BME280;52593;42.648;23.332;2023-08-21T10:20:55;94861.03;;;30.82;32.91
65832;BME280;52593;42.648;23.332;2023-08-21T10:23:29;94857.25;;;30.92;31.90
65832;BME280;52593;42.648;23.332;2023-08-21T10:25:58;94857.56;;;30.90;32.01
65832;BME280;52593;42.648;23.332;2023-08-21T10:28:24;94854.16;;;30.99;31.78
65832;BME280;52593;42.648;23.332;2023-08-21T10:30:49;94844.22;;;30.98;31.19
65832;BME280;52593;42.648;23.332;2023-08-21T10:33:15;94844.13;;;31.17;32.32
65832;BME280;52593;42.648;23.332;2023-08-21T10:35:40;94843.72;;;31.23;32.20
65832;BME280;52593;42.648;23.332;2023-08-21T10:38:16;94837.44;;;31.59;32.91
65832;BME280;52593;42.648;23.332;2023-08-21T10:41:08;94839.00;;;31.65;30.68
65832;BME280;52593;42.648;23.332;2023-08-21T10:43:44;94830.47;;;31.48;30.10
65832;BME280;52593;42.648;23.332;2023-08-21T10:46:10;94832.94;;;32.00;30.28
65832;BME280;52593;42.648;23.332;2023-08-21T10:48:36;94832.53;;;32.29;29.68
65832;BME280;52593;42.648;23.332;2023-08-21T10:51:03;94831.16;;;32.18;29.85
65832;BME280;52593;42.648;23.332;2023-08-21T10:53:29;94825.16;;;31.65;30.94
65832;BME280;52593;42.648;23.332;2023-08-21T10:55:55;94817.28;;;31.95;30.43
65832;BME280;52593;42.648;23.332;2023-08-21T10:58:21;94810.84;;;32.45;29.24
65832;BME280;52593;42.648;23.332;2023-08-21T11:00:47;94809.66;;;32.15;31.86
65832;BME280;52593;42.648;23.332;2023-08-21T11:03:20;94817.28;;;31.31;32.31
65832;BME280;52593;42.648;23.332;2023-08-21T11:06:00;94816.25;;;31.91;30.71
65832;BME280;52593;42.648;23.332;2023-08-21T11:08:25;94821.69;;;31.96;28.55
65832;BME280;52593;42.648;23.332;2023-08-21T11:10:50;94820.97;;;31.26;29.44
65832;BME280;52593;42.648;23.332;2023-08-21T11:13:16;94814.16;;;30.49;30.64
65832;BME280;52593;42.648;23.332;2023-08-21T11:15:41;94804.13;;;30.53;31.21
65832;BME280;52593;42.648;23.332;2023-08-21T11:18:07;94808.69;;;30.44;31.27
65832;BME280;52593;42.648;23.332;2023-08-21T11:20:34;94807.69;;;30.40;32.19
65832;BME280;52593;42.648;23.332;2023-08-21T11:23:01;94805.59;;;30.92;31.76
65832;BME280;52593;42.648;23.332;2023-08-21T11:25:29;94807.19;;;31.77;31.20
65832;BME280;52593;42.648;23.332;2023-08-21T11:27:55;94804.56;;;31.94;29.51
65832;BME280;52593;42.648;23.332;2023-08-21T11:30:22;94803.94;;;31.75;29.88
65832;BME280;52593;42.648;23.332;2023-08-21T11:32:49;94804.88;;;31.70;30.00
65832;BME280;52593;42.648;23.332;2023-08-21T11:35:16;94799.66;;;31.27;31.27
65832;BME280;52593;42.648;23.332;2023-08-21T11:37:45;94792.38;;;31.45;30.37
65832;BME280;52593;42.648;23.332;2023-08-21T11:40:11;94794.22;;;31.63;30.08
65832;BME280;52593;42.648;23.332;2023-08-21T11:42:38;94793.19;;;31.45;30.28
65832;BME280;52593;42.648;23.332;2023-08-21T11:45:04;94795.47;;;31.29;29.33
65832;BME280;52593;42.648;23.332;2023-08-21T11:47:34;94787.16;;;31.57;29.40
65832;BME280;52593;42.648;23.332;2023-08-21T11:50:05;94782.38;;;32.31;30.33
65832;BME280;52593;42.648;23.332;2023-08-21T11:52:31;94786.09;;;32.80;28.75
65832;BME280;52593;42.648;23.332;2023-08-21T11:54:57;94782.66;;;32.75;27.36
65832;BME280;52593;42.648;23.332;2023-08-21T11:57:23;94783.78;;;33.14;28.34
65832;BME280;52593;42.648;23.332;2023-08-21T11:59:50;94782.31;;;33.16;27.40
65832;BME280;52593;42.648;23.332;2023-08-21T12:02:17;94786.13;;;33.29;25.94
65832;BME280;52593;42.648;23.332;2023-08-21T12:04:43;94780.28;;;33.57;25.77
65832;BME280;52593;42.648;23.332;2023-08-21T12:07:09;94777.31;;;33.27;25.11
65832;BME280;52593;42.648;23.332;2023-08-21T12:09:34;94782.81;;;33.18;25.52
65832;BME280;52593;42.648;23.332;2023-08-21T12:12:00;94777.75;;;33.12;25.80
65832;BME280;52593;42.648;23.332;2023-08-21T12:14:27;94781.13;;;33.57;24.82
65832;BME280;52593;42.648;23.332;2023-08-21T12:16:53;94777.66;;;33.43;25.09
65832;BME280;52593;42.648;23.332;2023-08-21T12:19:20;94772.78;;;33.31;25.60
65832;BME280;52593;42.648;23.332;2023-08-21T12:21:46;94775.72;;;33.44;25.13
65832;BME280;52593;42.648;23.332;2023-08-21T12:24:12;94771.72;;;33.85;25.30
65832;BME280;52593;42.648;23.332;2023-08-21T12:26:38;94764.34;;;34.06;25.53
65832;BME280;52593;42.648;23.332;2023-08-21T12:29:03;94764.19;;;33.94;24.81
65832;BME280;52593;42.648;23.332;2023-08-21T12:31:29;94762.72;;;33.97;24.43
65832;BME280;52593;42.648;23.332;2023-08-21T12:33:55;94762.53;;;34.19;25.24
65832;BME280;52593;42.648;23.332;2023-08-21T12:36:21;94769.72;;;34.38;25.32
65832;BME280;52593;42.648;23.332;2023-08-21T12:38:47;94758.13;;;34.27;25.00
65832;BME280;52593;42.648;23.332;2023-08-21T12:41:13;94762.56;;;33.93;24.90
65832;BME280;52593;42.648;23.332;2023-08-21T12:43:38;94754.06;;;34.16;24.00
65832;BME280;52593;42.648;23.332;2023-08-21T12:46:04;94748.34;;;33.68;24.29
65832;BME280;52593;42.648;23.332;2023-08-21T12:48:30;94758.13;;;33.48;23.62
65832;BME280;52593;42.648;23.332;2023-08-21T12:50:56;94759.47;;;33.94;24.58
65832;BME280;52593;42.648;23.332;2023-08-21T12:53:21;94743.06;;;34.45;24.12